Esan, Japan

8:30 AM JST on September 02, 2015 (GMT +0900)
Hakodate | | Change Station
CLOSE
Current Station
Airport
Location: Hakodate Airport,
Elevation: 118 ft
Nearby Weather Stations

Elev 118 ft 41.77 °N, 140.82 °E | Updated 18 minutes ago

Light Rain Showers
Light Showers Rain
70 °F
Feels Like 70 °F
N
21
Wind Variable Wind from ESE

Today
High -- | Low -- °F
--% Chance of Precip.
Yesterday
High -- | Low -- °F
Precip. -- in
5:01 AM 6:08 PM
Waning Gibbous, 85% visible
Pressure 29.74 in
Visibility 6.2 miles
Clouds Few 300 ft
Mostly Cloudy 400 ft
Dew Point 68 °F
Humidity 94%
Rainfall 0.00 in
Snow Depth Not available.
UV 2 out of 12
Pollen Not available.
Air Quality Not available.
Flu Activity Not available.
SPECI RJCH 012312Z 12018KT 9999 -SHRA FEW003 BKN004 21/20 Q1007 RMK 1ST003 7ST004 A2975
Pressure 29.74 in
Visibility 6.2 miles
Clouds Few 300 ft
Mostly Cloudy 400 ft
Dew Point 68 °F
Humidity 94%
Rainfall 0.00 in
Snow Depth Not available.
UV 2 out of 12
Pollen Not available.
Air Quality Not available.
Flu Activity Not available.
SPECI RJCH 012312Z 12018KT 9999 -SHRA FEW003 BKN004 21/20 Q1007 RMK 1ST003 7ST004 A2975

10-Day Weather Forecast

×

Almanac

Astronomy

Sep. 02, 2015 Rise Set
Actual Time
Civil Twilight
Nautical Twilight
Astronomical Twilight
Moon
Length of Visible Light
Length of Day
Tomorrow will be .
, % of the Moon is Illuminated

Today's Extremes

Country Highs Country Lows

Community

WunderPhotos

Upload Photos

1,851,643 photos uploaded!

WunderBlogs® & News

Nearby

Air Quality

  Air Quality AQ Index Pollutant
Not available.

Snow Depth

Station Depth Elevation

Earthquake Activity

City Distance Mag. Time & Date
Minimum magnitude displayed is 2.5.

Coastal Water Temperatures

Place Temperature

Stations

Nearby Weather Stations

Station Location Temp. Windchill Dew Point Humidity Wind Precip. Elev Updated Type